createdAt,value
2022-11-11T00:00:48.763Z,11.95
2022-11-11T00:03:34.347Z,12.09
2022-11-11T00:06:19.637Z,11.89
2022-11-11T00:09:04.877Z,11.85
2022-11-11T00:11:50.130Z,11.89
2022-11-11T00:14:35.334Z,11.95
2022-11-11T00:17:39.293Z,11.63
2022-11-11T00:20:44.797Z,11.82
2022-11-11T00:23:48.922Z,11.95
2022-11-11T00:26:39.749Z,11.55
2022-11-11T00:29:25.784Z,11.83
2022-11-11T00:32:23.233Z,11.57
2022-11-11T00:35:28.049Z,11.42
2022-11-11T00:38:33.717Z,11.81
2022-11-11T00:41:21.384Z,11.52
2022-11-11T00:44:06.864Z,11.88
2022-11-11T00:47:10.892Z,11.63
2022-11-11T00:50:14.676Z,11.68
2022-11-11T00:52:59.919Z,11.60
2022-11-11T00:55:45.309Z,11.48
2022-11-11T00:58:30.865Z,11.81
2022-11-11T01:01:16.781Z,11.67
2022-11-11T01:04:02.167Z,11.47
2022-11-11T01:06:47.694Z,11.51
2022-11-11T01:09:32.745Z,11.77
2022-11-11T01:12:18.055Z,11.48
2022-11-11T01:15:03.406Z,11.47
2022-11-11T01:17:48.581Z,11.46
2022-11-11T01:20:34.172Z,11.54
2022-11-11T01:23:19.205Z,11.71
2022-11-11T01:26:07.726Z,11.58
2022-11-11T01:28:55.263Z,12.08
2022-11-11T01:31:40.590Z,11.81
2022-11-11T01:34:27.636Z,11.89
2022-11-11T01:37:12.667Z,11.54
2022-11-11T01:39:58.452Z,11.61
2022-11-11T01:43:14.377Z,11.61
2022-11-11T01:46:03.631Z,11.46
2022-11-11T01:49:10.128Z,11.40
2022-11-11T01:52:01.010Z,11.91
2022-11-11T01:54:46.369Z,12.01
2022-11-11T01:57:40.532Z,11.95
2022-11-11T02:00:25.858Z,11.67
2022-11-11T02:03:13.482Z,11.81
2022-11-11T02:05:58.747Z,11.89
2022-11-11T02:08:44.573Z,11.70
2022-11-11T02:11:50.516Z,12.12
2022-11-11T02:14:42.964Z,11.78
2022-11-11T02:17:31.158Z,11.74
2022-11-11T02:20:23.028Z,11.71
2022-11-11T02:23:14.956Z,11.51
2022-11-11T02:26:02.756Z,11.73
2022-11-11T02:28:48.273Z,11.67
2022-11-11T02:31:33.829Z,11.57
2022-11-11T02:34:18.981Z,11.57
2022-11-11T02:37:07.918Z,12.10
2022-11-11T02:40:05.069Z,11.80
2022-11-11T02:42:50.693Z,11.53
2022-11-11T02:45:36.051Z,11.85
2022-11-11T02:48:22.177Z,11.95
2022-11-11T02:51:08.921Z,11.71
2022-11-11T02:53:58.927Z,12.00
2022-11-11T02:57:03.221Z,11.70
2022-11-11T02:59:48.719Z,11.89
2022-11-11T03:02:34.243Z,11.93
2022-11-11T03:05:19.443Z,11.73
2022-11-11T03:08:05.930Z,11.75
2022-11-11T03:10:51.113Z,11.83
2022-11-11T03:13:36.390Z,11.85
2022-11-11T03:16:40.332Z,12.12
2022-11-11T03:19:25.367Z,11.74
2022-11-11T03:25:34.981Z,12.08
2022-11-11T03:28:21.514Z,12.13
2022-11-11T03:31:06.616Z,12.21
2022-11-11T03:33:52.009Z,12.10
2022-11-11T03:36:55.928Z,12.27
2022-11-11T03:39:41.377Z,12.10
2022-11-11T03:42:26.483Z,12.56
2022-11-11T03:45:11.724Z,12.24
2022-11-11T03:47:57.282Z,12.01
2022-11-11T03:50:42.409Z,11.97
2022-11-11T03:53:27.848Z,12.16
2022-11-11T03:56:12.775Z,11.95
2022-11-11T03:58:58.165Z,12.37
2022-11-11T04:02:02.436Z,12.46
2022-11-11T04:05:06.023Z,12.08
2022-11-11T04:08:10.124Z,12.30
2022-11-11T04:10:56.336Z,12.00
2022-11-11T04:14:04.856Z,11.90
2022-11-11T04:16:50.471Z,12.15
2022-11-11T04:19:54.205Z,12.16
2022-11-11T04:22:41.810Z,12.17
2022-11-11T04:25:45.369Z,11.98
2022-11-11T04:28:49.080Z,12.02
2022-11-11T04:31:34.445Z,12.14
2022-11-11T04:34:19.782Z,11.86
2022-11-11T04:37:04.919Z,12.12
2022-11-11T04:40:09.337Z,12.31
2022-11-11T04:42:54.731Z,11.97
2022-11-11T04:45:39.779Z,12.02
2022-11-11T04:48:25.312Z,11.96
2022-11-11T04:51:10.320Z,12.11
2022-11-11T04:53:55.673Z,11.91
2022-11-11T04:56:50.507Z,12.00
2022-11-11T04:59:35.911Z,11.74
2022-11-11T05:02:39.666Z,11.88
2022-11-11T05:05:28.224Z,11.95
2022-11-11T05:08:32.127Z,11.81
2022-11-11T05:11:17.607Z,11.88
2022-11-11T05:14:25.549Z,11.68
2022-11-11T05:17:29.310Z,12.08
2022-11-11T05:20:38.549Z,12.02
2022-11-11T05:23:43.929Z,11.89
2022-11-11T05:26:31.985Z,11.75
2022-11-11T05:29:17.391Z,11.91
2022-11-11T05:32:02.664Z,11.52
2022-11-11T05:34:48.545Z,11.66
2022-11-11T05:37:33.983Z,11.69
2022-11-11T05:40:18.946Z,11.99
2022-11-11T05:43:04.170Z,11.72
2022-11-11T05:45:49.271Z,11.88
2022-11-11T05:48:34.435Z,11.88
2022-11-11T05:51:28.150Z,11.54
2022-11-11T05:54:14.705Z,11.70
2022-11-11T05:57:00.633Z,11.39
2022-11-11T05:59:45.836Z,11.52
2022-11-11T06:02:30.916Z,11.60
2022-11-11T06:05:16.289Z,11.44
2022-11-11T06:08:01.658Z,11.48
2022-11-11T06:10:46.993Z,11.66
2022-11-11T06:13:32.261Z,11.38
2022-11-11T06:16:17.715Z,11.77
2022-11-11T06:19:04.299Z,11.88
2022-11-11T06:21:58.752Z,11.91
2022-11-11T06:25:04.042Z,11.67
2022-11-11T06:27:49.101Z,11.80
2022-11-11T06:30:49.672Z,11.88
2022-11-11T06:33:37.652Z,11.53
2022-11-11T06:36:22.698Z,11.73
2022-11-11T06:39:08.345Z,11.72
2022-11-11T06:41:53.802Z,11.65
2022-11-11T06:44:39.139Z,11.87
2022-11-11T06:47:24.430Z,11.82
2022-11-11T06:50:10.188Z,11.74
2022-11-11T06:52:58.284Z,11.65
2022-11-11T06:55:44.000Z,11.83
2022-11-11T06:58:28.982Z,11.91
2022-11-11T07:01:14.767Z,12.14
2022-11-11T07:04:00.114Z,11.69
2022-11-11T07:06:45.381Z,11.74
2022-11-11T07:09:30.772Z,11.84
2022-11-11T07:12:16.451Z,11.89
2022-11-11T07:15:01.519Z,11.90
2022-11-11T07:17:46.713Z,12.10
2022-11-11T07:20:32.347Z,11.88
2022-11-11T07:23:18.047Z,11.93
2022-11-11T07:26:03.561Z,11.98
2022-11-11T07:28:50.832Z,11.86
2022-11-11T07:31:36.091Z,11.68
2022-11-11T07:34:21.594Z,11.87
2022-11-11T07:37:06.855Z,11.80
2022-11-11T07:39:51.837Z,11.87
2022-11-11T07:42:38.334Z,11.78
2022-11-11T07:45:26.503Z,11.87
2022-11-11T07:48:14.342Z,11.64
2022-11-11T07:50:59.754Z,11.89
2022-11-11T07:53:44.808Z,12.33
2022-11-11T07:56:33.415Z,11.93
2022-11-11T07:59:19.104Z,11.74
2022-11-11T08:02:04.600Z,11.68
2022-11-11T08:04:54.785Z,11.56
2022-11-11T08:07:42.760Z,11.94
2022-11-11T08:10:28.512Z,11.95
2022-11-11T08:13:32.564Z,11.73
2022-11-11T08:16:17.862Z,12.06
2022-11-11T08:19:06.077Z,11.80
2022-11-11T08:21:52.224Z,11.75
2022-11-11T08:25:02.880Z,11.84
2022-11-11T08:27:42.793Z,11.54
2022-11-11T08:30:28.682Z,11.66
2022-11-11T08:36:21.187Z,11.54
2022-11-11T08:39:07.081Z,11.66
2022-11-11T08:41:54.390Z,11.74
2022-11-11T08:44:41.946Z,11.69
2022-11-11T08:47:27.274Z,11.70
2022-11-11T08:50:12.193Z,11.84
2022-11-11T08:52:57.719Z,11.82
2022-11-11T08:55:43.370Z,11.80
2022-11-11T08:58:29.028Z,11.78
2022-11-11T09:01:14.621Z,11.72
2022-11-11T09:04:06.711Z,11.75
2022-11-11T09:07:01.832Z,11.90
2022-11-11T09:09:47.240Z,11.64
2022-11-11T09:12:32.423Z,12.02
2022-11-11T09:15:17.926Z,12.01
2022-11-11T09:18:03.848Z,11.86
2022-11-11T09:20:49.339Z,11.89
2022-11-11T09:23:34.856Z,11.80
2022-11-11T09:26:21.654Z,11.78
2022-11-11T09:29:07.020Z,11.90
2022-11-11T09:31:52.416Z,11.89
2022-11-11T09:34:37.754Z,11.71
2022-11-11T09:37:23.012Z,12.01
2022-11-11T09:40:16.325Z,11.81
2022-11-11T09:43:23.864Z,11.89
2022-11-11T09:46:18.206Z,11.86
2022-11-11T09:49:15.394Z,12.04
2022-11-11T09:52:17.872Z,11.77
2022-11-11T09:55:41.948Z,11.85
2022-11-11T09:58:30.096Z,11.97
2022-11-11T10:01:26.341Z,11.96
2022-11-11T10:04:25.550Z,11.89
2022-11-11T10:07:26.335Z,11.95
2022-11-11T10:10:33.459Z,12.03
2022-11-11T10:13:31.571Z,12.02
2022-11-11T10:16:42.882Z,11.89
2022-11-11T10:19:35.823Z,11.99
2022-11-11T10:22:38.491Z,12.20
2022-11-11T10:25:25.863Z,12.19
2022-11-11T10:28:17.852Z,12.28
2022-11-11T10:31:09.675Z,12.24
2022-11-11T10:34:00.709Z,12.33
2022-11-11T10:36:54.354Z,12.07
2022-11-11T10:40:25.279Z,12.35
2022-11-11T10:43:24.845Z,12.27
2022-11-11T10:46:22.545Z,12.29
2022-11-11T11:07:22.176Z,12.06
2022-11-11T11:10:15.889Z,12.08
2022-11-11T11:13:07.791Z,12.25
2022-11-11T11:16:07.537Z,12.22
2022-11-11T11:19:19.258Z,12.17
2022-11-11T11:22:07.288Z,12.62
2022-11-11T11:25:13.294Z,12.91
2022-11-11T11:28:13.364Z,12.47
2022-11-11T11:31:00.102Z,12.49
2022-11-11T11:33:55.116Z,12.40
2022-11-11T11:36:40.324Z,12.21
2022-11-11T11:39:41.586Z,12.51
2022-11-11T11:42:38.278Z,12.13
2022-11-11T11:45:25.569Z,12.25
2022-11-11T11:48:37.480Z,12.09
2022-11-11T11:52:00.686Z,12.10
2022-11-11T11:54:52.407Z,12.14
2022-11-11T11:57:53.069Z,12.35
2022-11-11T12:01:02.874Z,12.17
2022-11-11T12:04:10.875Z,12.12
2022-11-11T12:07:14.311Z,12.16
2022-11-11T12:10:24.279Z,12.35
2022-11-11T12:13:28.250Z,12.37
2022-11-11T12:16:39.426Z,12.52
2022-11-11T12:19:57.741Z,12.22
2022-11-11T12:22:46.069Z,12.60
2022-11-11T12:25:54.006Z,12.39
2022-11-11T12:29:06.599Z,12.31
2022-11-11T12:32:29.149Z,12.00
2022-11-11T12:35:39.200Z,12.03
2022-11-11T12:38:56.976Z,11.98
2022-11-11T12:42:06.376Z,12.26
2022-11-11T12:45:05.817Z,12.30
2022-11-11T12:48:33.116Z,12.15
2022-11-11T12:51:37.296Z,12.23
2022-11-11T12:54:55.659Z,12.26
2022-11-11T12:57:58.707Z,12.34
2022-11-11T13:01:12.835Z,12.35
2022-11-11T13:04:22.749Z,12.36
2022-11-11T13:07:16.902Z,12.18
2022-11-11T13:10:20.839Z,12.31
2022-11-11T13:13:26.128Z,12.48
2022-11-11T13:16:12.431Z,12.18
2022-11-11T13:19:10.825Z,12.49
2022-11-11T13:22:07.089Z,12.56
2022-11-11T13:24:54.437Z,12.41
2022-11-11T13:27:50.426Z,12.51
2022-11-11T13:30:38.485Z,12.24
2022-11-11T13:33:42.040Z,12.31
2022-11-11T13:36:30.387Z,12.50
2022-11-11T13:39:32.434Z,12.30
2022-11-11T13:42:25.025Z,12.80
2022-11-11T13:45:31.724Z,12.44
2022-11-11T13:48:27.720Z,12.30
2022-11-11T13:51:18.999Z,12.25
2022-11-11T13:54:07.668Z,12.31
2022-11-11T13:57:01.165Z,12.58
2022-11-11T14:00:05.747Z,12.44
2022-11-11T14:03:22.650Z,12.54
2022-11-11T14:06:14.256Z,12.43
2022-11-11T14:49:09.153Z,11.90
2022-11-11T14:55:19.583Z,12.21
2022-11-11T14:58:10.224Z,12.29
2022-11-11T15:01:10.223Z,12.52
2022-11-11T15:04:01.930Z,12.59
2022-11-11T15:06:58.562Z,12.47
2022-11-11T15:10:09.670Z,12.58
2022-11-11T15:13:27.477Z,12.56
2022-11-11T15:16:59.742Z,12.60
2022-11-11T15:20:07.798Z,12.27
2022-11-11T15:23:32.211Z,12.31
2022-11-11T15:26:41.996Z,12.49
2022-11-11T15:29:45.905Z,12.50
2022-11-11T16:37:22.630Z,12.36
2022-11-11T16:40:26.785Z,12.26
2022-11-11T16:43:26.304Z,12.44
2022-11-11T16:46:28.672Z,12.56
2022-11-11T16:49:26.008Z,12.43
2022-11-11T16:52:22.846Z,12.40
2022-11-11T16:55:11.353Z,12.23
2022-11-11T16:58:10.966Z,12.38
2022-11-11T17:01:02.449Z,12.27
2022-11-11T17:03:59.472Z,12.13
2022-11-11T17:06:48.021Z,12.34
2022-11-11T17:09:41.393Z,12.37
2022-11-11T17:12:34.665Z,12.43
2022-11-11T17:15:22.004Z,12.31
2022-11-11T17:18:11.889Z,12.47
2022-11-11T17:20:57.649Z,12.62
2022-11-11T17:23:43.128Z,12.24
2022-11-11T17:26:28.363Z,12.41
2022-11-11T17:29:14.369Z,12.33
2022-11-11T17:32:02.835Z,12.37
2022-11-11T17:34:48.297Z,12.20
2022-11-11T17:37:40.014Z,12.23
2022-11-11T17:40:25.172Z,12.39
2022-11-11T17:43:10.270Z,12.61
2022-11-11T17:45:56.211Z,12.62
2022-11-11T17:48:41.352Z,12.77
2022-11-11T17:51:26.743Z,12.70
2022-11-11T17:54:14.587Z,12.76
2022-11-11T17:57:07.035Z,12.55
2022-11-11T17:59:54.852Z,12.69
2022-11-11T18:02:39.866Z,12.77
2022-11-11T18:05:25.253Z,12.86
2022-11-11T18:08:10.568Z,12.51
2022-11-11T18:11:03.593Z,12.60
2022-11-11T18:13:49.139Z,12.43
2022-11-11T18:16:34.403Z,12.75
2022-11-11T18:19:19.852Z,12.52
2022-11-11T18:22:05.368Z,12.54
2022-11-11T18:24:50.656Z,12.21
2022-11-11T18:27:35.923Z,12.36
2022-11-11T18:30:21.998Z,12.48
2022-11-11T18:33:07.123Z,12.72
2022-11-11T18:35:55.337Z,12.43
2022-11-11T18:38:48.203Z,12.31
2022-11-11T18:41:33.593Z,12.45
2022-11-11T18:44:18.952Z,12.23
2022-11-11T18:47:04.204Z,12.19
2022-11-11T18:49:49.447Z,12.08
2022-11-11T18:52:34.821Z,12.34
2022-11-11T18:55:20.101Z,12.36
2022-11-11T18:58:05.498Z,12.42
2022-11-11T19:00:50.618Z,12.47
2022-11-11T19:03:37.308Z,12.28
2022-11-11T19:06:22.382Z,12.26
2022-11-11T19:09:10.264Z,12.61
2022-11-11T19:11:55.628Z,12.82
2022-11-11T19:14:41.008Z,12.41
2022-11-11T19:17:26.139Z,12.10
2022-11-11T19:20:11.639Z,11.99
2022-11-11T19:22:56.654Z,12.25
2022-11-11T19:25:42.025Z,12.00
2022-11-11T19:28:27.373Z,12.12
2022-11-11T19:31:15.547Z,12.13
2022-11-11T19:34:00.781Z,12.25
2022-11-11T19:36:46.032Z,12.11
2022-11-11T19:39:31.354Z,12.00
2022-11-11T19:42:16.764Z,12.29
2022-11-11T19:45:02.762Z,12.07
2022-11-11T19:47:51.000Z,12.41
2022-11-11T19:50:36.405Z,12.27
2022-11-11T19:53:21.770Z,12.19
2022-11-11T19:56:11.024Z,12.15
2022-11-11T19:58:56.150Z,12.16
2022-11-11T20:01:41.561Z,12.15
2022-11-11T20:04:29.491Z,12.01
2022-11-11T20:07:14.483Z,12.03
2022-11-11T20:09:59.847Z,12.17
2022-11-11T20:12:45.199Z,12.17
2022-11-11T20:15:30.537Z,12.30
2022-11-11T20:18:16.016Z,12.06
2022-11-11T20:21:09.166Z,12.26
2022-11-11T20:23:58.873Z,12.13
2022-11-11T20:26:45.284Z,12.24
2022-11-11T20:29:31.884Z,12.09
2022-11-11T20:32:17.706Z,11.87
2022-11-11T20:35:02.711Z,12.02
2022-11-11T20:37:48.120Z,11.89
2022-11-11T20:40:33.331Z,12.00
2022-11-11T20:43:18.644Z,11.84
2022-11-11T20:46:07.007Z,11.99
2022-11-11T20:48:52.447Z,11.99
2022-11-11T20:51:37.379Z,11.92
2022-11-11T20:54:22.543Z,12.05
2022-11-11T20:57:08.082Z,11.72
2022-11-11T20:59:53.462Z,11.89
2022-11-11T21:02:40.644Z,11.77
2022-11-11T21:05:28.915Z,12.02
2022-11-11T21:08:16.005Z,12.09
2022-11-11T21:11:02.161Z,11.85
2022-11-11T21:13:48.064Z,11.72
2022-11-11T21:16:33.348Z,11.77
2022-11-11T21:19:18.501Z,11.65
2022-11-11T21:22:08.879Z,11.80
2022-11-11T21:24:55.320Z,11.83
2022-11-11T21:27:40.759Z,11.96
2022-11-11T21:30:26.074Z,11.73
2022-11-11T21:33:11.385Z,11.86
2022-11-11T21:36:08.330Z,11.80
2022-11-11T21:38:53.326Z,11.95
2022-11-11T21:41:41.083Z,11.88
2022-11-11T21:44:26.254Z,12.02
2022-11-11T21:47:12.635Z,12.00
2022-11-11T21:49:57.916Z,12.03
2022-11-11T21:52:43.154Z,11.97
2022-11-11T21:55:28.518Z,12.14
2022-11-11T21:58:16.322Z,12.11
2022-11-11T22:01:09.797Z,11.86
2022-11-11T22:04:00.411Z,12.04
2022-11-11T22:06:45.814Z,12.19
2022-11-11T22:09:31.057Z,12.20
2022-11-11T22:12:16.427Z,12.09
2022-11-11T22:15:01.659Z,11.87
2022-11-11T22:17:46.936Z,11.95
2022-11-11T22:20:32.333Z,11.94
2022-11-11T22:23:17.890Z,12.11
2022-11-11T22:26:10.568Z,12.27
2022-11-11T22:28:55.592Z,12.19
2022-11-11T22:31:44.503Z,12.06
2022-11-11T22:34:29.914Z,12.05
2022-11-11T22:37:15.868Z,11.96
2022-11-11T22:40:00.961Z,12.10
2022-11-11T22:42:46.212Z,12.24
2022-11-11T22:45:32.896Z,12.45
2022-11-11T22:48:20.539Z,12.40
2022-11-11T22:51:19.747Z,12.72
2022-11-11T22:54:06.591Z,12.78
2022-11-11T22:56:52.109Z,13.00
2022-11-11T22:59:42.147Z,12.92
2022-11-11T23:02:27.374Z,12.97
2022-11-11T23:05:15.121Z,12.96
2022-11-11T23:08:00.371Z,12.87
2022-11-11T23:10:51.405Z,12.95
2022-11-11T23:13:41.411Z,12.91
2022-11-11T23:16:29.529Z,12.81
2022-11-11T23:19:22.794Z,12.82
2022-11-11T23:22:16.154Z,12.81
2022-11-11T23:25:07.024Z,12.48
2022-11-11T23:27:52.209Z,12.47
2022-11-11T23:30:37.435Z,12.21
2022-11-11T23:33:28.027Z,12.28
2022-11-11T23:36:17.516Z,12.17
2022-11-11T23:39:03.742Z,12.39
2022-11-11T23:41:48.807Z,12.07
2022-11-11T23:44:33.968Z,12.08
2022-11-11T23:47:19.419Z,12.30
2022-11-11T23:50:04.979Z,12.27
2022-11-11T23:52:50.048Z,12.38
2022-11-11T23:55:35.249Z,12.21
2022-11-11T23:58:20.392Z,12.52
